createdAt,value
2019-05-22T00:02:19.747Z,99579.84
2019-05-22T00:04:59.559Z,99583.48
2019-05-22T00:07:30.766Z,99586.60
2019-05-22T00:10:03.432Z,99581.55
2019-05-22T00:12:46.220Z,99588.78
2019-05-22T00:15:08.571Z,99581.70
2019-05-22T00:17:40.547Z,99590.81
2019-05-22T00:20:14.447Z,99587.11
2019-05-22T00:22:47.478Z,99595.50
2019-05-22T00:25:23.904Z,99592.30
2019-05-22T00:27:54.981Z,99594.68
2019-05-22T00:30:27.466Z,99584.23
2019-05-22T00:33:00.516Z,99593.59
2019-05-22T00:35:31.739Z,99584.58
2019-05-22T00:38:03.388Z,99584.29
2019-05-22T00:40:35.706Z,99592.11
2019-05-22T00:43:13.795Z,99598.14
2019-05-22T00:45:40.679Z,99599.73
2019-05-22T00:48:11.610Z,99598.38
2019-05-22T00:51:01.829Z,99597.86
2019-05-22T00:53:55.870Z,99596.70
2019-05-22T00:56:51.233Z,99608.97
2019-05-22T00:59:32.193Z,99611.67
2019-05-22T01:02:05.348Z,99612.00
2019-05-22T01:04:40.801Z,99613.82
2019-05-22T01:07:18.365Z,99613.67
2019-05-22T01:09:52.204Z,99609.80
2019-05-22T01:12:29.840Z,99605.39
2019-05-22T01:15:05.502Z,99610.99
2019-05-22T01:17:41.126Z,99610.61
2019-05-22T01:20:16.523Z,99610.07
2019-05-22T01:22:49.939Z,99594.79
2019-05-22T01:25:24.402Z,99604.23
2019-05-22T01:27:55.974Z,99605.05
2019-05-22T01:30:52.509Z,99609.88
2019-05-22T01:33:41.418Z,99607.05
2019-05-22T01:36:30.635Z,99611.28
2019-05-22T01:39:21.603Z,99606.06
2019-05-22T01:41:54.717Z,99608.93
2019-05-22T01:44:26.489Z,99607.48
2019-05-22T01:47:00.350Z,99607.59
2019-05-22T01:49:31.763Z,99606.44
2019-05-22T01:52:04.222Z,99607.09
2019-05-22T01:54:36.187Z,99612.63
2019-05-22T01:57:05.629Z,99622.91
2019-05-22T01:59:36.942Z,99629.14
2019-05-22T02:02:12.189Z,99632.49
2019-05-22T02:04:43.165Z,99633.31
2019-05-22T02:07:14.075Z,99636.33
2019-05-22T02:09:46.299Z,99639.05
2019-05-22T02:12:28.988Z,99643.56
2019-05-22T02:15:00.337Z,99638.20
2019-05-22T02:17:35.747Z,99642.78
2019-05-22T02:20:09.054Z,99638.05
2019-05-22T02:22:40.678Z,99643.56
2019-05-22T02:25:13.024Z,99653.70
2019-05-22T02:27:44.181Z,99651.69
2019-05-22T02:30:16.270Z,99645.66
2019-05-22T02:32:49.450Z,99659.38
2019-05-22T02:35:20.231Z,99659.97
2019-05-22T02:37:52.079Z,99664.48
2019-05-22T02:40:28.311Z,99670.73
2019-05-22T02:42:59.896Z,99669.24
2019-05-22T02:45:30.436Z,99669.88
2019-05-22T02:48:03.871Z,99663.88
2019-05-22T02:50:35.322Z,99674.91
2019-05-22T02:53:09.611Z,99678.14
2019-05-22T02:55:40.563Z,99676.84
2019-05-22T02:58:13.161Z,99682.66
2019-05-22T03:01:03.010Z,99681.83
2019-05-22T03:03:34.862Z,99680.83
2019-05-22T03:06:11.334Z,99681.31
2019-05-22T03:09:17.807Z,99688.87
2019-05-22T03:12:01.481Z,99685.03
2019-05-22T03:14:35.496Z,99690.31
2019-05-22T03:17:10.344Z,99693.84
2019-05-22T03:19:45.475Z,99685.09
2019-05-22T03:22:26.950Z,99684.80
2019-05-22T03:25:01.939Z,99691.16
2019-05-22T03:27:42.628Z,99688.66
2019-05-22T03:30:31.489Z,99693.17
2019-05-22T03:33:04.253Z,99691.03
2019-05-22T03:35:42.479Z,99697.56
2019-05-22T03:38:13.538Z,99700.47
2019-05-22T03:40:44.356Z,99698.59
2019-05-22T03:43:24.708Z,99704.63
2019-05-22T03:45:57.159Z,99705.83
2019-05-22T03:48:32.505Z,99704.31
2019-05-22T03:51:12.630Z,99708.88
2019-05-22T03:53:44.450Z,99707.84
2019-05-22T03:56:17.640Z,99711.02
2019-05-22T03:58:48.377Z,99712.20
2019-05-22T04:01:21.410Z,99718.21
2019-05-22T04:03:52.651Z,99712.51
2019-05-22T04:06:24.150Z,99719.55
2019-05-22T04:08:56.753Z,99718.23
2019-05-22T04:11:32.364Z,99728.30
2019-05-22T04:14:03.350Z,99721.77
2019-05-22T04:16:35.203Z,99733.67
2019-05-22T04:19:08.280Z,99731.64
2019-05-22T04:21:39.170Z,99737.67
2019-05-22T04:24:09.818Z,99731.00
2019-05-22T04:26:40.350Z,99741.72
2019-05-22T04:29:11.005Z,99736.69
2019-05-22T04:31:53.959Z,99737.36
2019-05-22T04:34:24.448Z,99741.36
2019-05-22T04:36:55.329Z,99745.38
2019-05-22T04:39:29.698Z,99748.89
2019-05-22T04:42:02.430Z,99749.27
2019-05-22T04:44:33.632Z,99750.41
2019-05-22T04:47:04.731Z,99747.91
2019-05-22T04:49:36.675Z,99755.27
2019-05-22T04:52:07.473Z,99758.65
2019-05-22T04:54:37.965Z,99759.31
2019-05-22T04:57:09.069Z,99763.16
2019-05-22T04:59:40.590Z,99765.86
2019-05-22T05:02:11.862Z,99768.38
2019-05-22T05:04:43.513Z,99773.03
2019-05-22T05:07:15.419Z,99766.85
2019-05-22T05:09:46.013Z,99764.80
2019-05-22T05:12:18.931Z,99769.49
2019-05-22T05:14:49.361Z,99767.30
2019-05-22T05:17:20.215Z,99767.48
2019-05-22T05:19:51.045Z,99771.83
2019-05-22T05:22:29.030Z,99778.05
2019-05-22T05:24:59.669Z,99775.70
2019-05-22T05:27:32.119Z,99776.90
2019-05-22T05:30:02.593Z,99778.22
2019-05-22T05:32:33.438Z,99781.94
2019-05-22T05:35:09.038Z,99788.44
2019-05-22T05:37:41.374Z,99787.08
2019-05-22T05:40:34.128Z,99788.58
2019-05-22T05:43:06.356Z,99795.30
2019-05-22T05:45:38.730Z,99795.64
2019-05-22T05:48:11.225Z,99796.64
2019-05-22T05:51:00.567Z,99799.81
2019-05-22T05:53:34.122Z,99803.16
2019-05-22T05:56:14.692Z,99810.05
2019-05-22T05:58:46.113Z,99806.05
2019-05-22T06:01:27.418Z,99820.09
2019-05-22T06:03:59.830Z,99809.71
2019-05-22T06:07:09.934Z,99822.13
2019-05-22T06:09:40.986Z,99824.45
2019-05-22T06:12:15.916Z,99822.13
2019-05-22T06:14:46.959Z,99824.97
2019-05-22T06:17:54.931Z,99825.64
2019-05-22T06:20:26.470Z,99830.18
2019-05-22T06:23:52.464Z,99830.20
2019-05-22T06:27:02.557Z,99835.22
2019-05-22T06:29:57.678Z,99835.07
2019-05-22T06:32:49.147Z,99830.52
2019-05-22T06:35:19.959Z,99837.05
2019-05-22T06:37:59.558Z,99842.24
2019-05-22T06:40:30.659Z,99845.94
2019-05-22T06:43:38.038Z,99846.60
2019-05-22T06:46:09.246Z,99859.68
2019-05-22T06:48:39.959Z,99859.20
2019-05-22T06:51:19.562Z,99866.73
2019-05-22T06:53:43.401Z,99863.89
2019-05-22T06:56:14.227Z,99867.73
2019-05-22T06:58:44.708Z,99863.22
2019-05-22T07:01:15.144Z,99865.38
2019-05-22T07:03:46.618Z,99863.03
2019-05-22T07:06:18.001Z,99864.02
2019-05-22T07:08:48.791Z,99869.52
2019-05-22T07:11:19.219Z,99872.20
2019-05-22T07:13:50.275Z,99879.41
2019-05-22T07:16:20.714Z,99882.61
2019-05-22T07:18:53.193Z,99880.10
2019-05-22T07:21:33.653Z,99884.45
2019-05-22T07:23:56.234Z,99880.94
2019-05-22T07:26:26.665Z,99882.96
2019-05-22T07:29:02.695Z,99888.48
2019-05-22T07:31:30.839Z,99889.65
2019-05-22T07:34:02.356Z,99889.81
2019-05-22T07:36:34.689Z,99898.17
2019-05-22T07:39:07.369Z,99892.48
2019-05-22T07:41:38.415Z,99902.19
2019-05-22T07:44:09.012Z,99897.65
2019-05-22T07:46:40.320Z,99898.47
2019-05-22T07:49:11.558Z,99893.25
2019-05-22T07:51:54.081Z,99904.17
2019-05-22T07:54:15.813Z,99900.83
2019-05-22T07:56:47.215Z,99903.50
2019-05-22T07:59:17.752Z,99902.17
2019-05-22T08:01:48.705Z,99908.70
2019-05-22T08:04:21.193Z,99909.54
2019-05-22T08:06:52.285Z,99914.24
2019-05-22T08:09:24.225Z,99915.73
2019-05-22T08:11:54.702Z,99919.44
2019-05-22T08:14:27.299Z,99924.80
2019-05-22T08:16:57.735Z,99921.64
2019-05-22T08:19:28.578Z,99931.04
2019-05-22T08:22:07.158Z,99934.20
2019-05-22T08:24:33.881Z,99932.69
2019-05-22T08:27:06.332Z,99940.07
2019-05-22T08:29:36.872Z,99944.12
2019-05-22T08:32:08.501Z,99944.12
2019-05-22T08:34:39.741Z,99943.79
2019-05-22T08:37:13.088Z,99942.27
2019-05-22T08:39:44.840Z,99943.62
2019-05-22T08:42:18.030Z,99947.30
2019-05-22T08:44:49.349Z,99948.79
2019-05-22T08:47:20.602Z,99955.65
2019-05-22T08:49:52.476Z,99951.79
2019-05-22T08:52:24.633Z,99954.95
2019-05-22T08:54:55.641Z,99961.97
2019-05-22T08:57:26.410Z,99958.08
2019-05-22T08:59:56.922Z,99963.58
2019-05-22T09:02:27.896Z,99968.78
2019-05-22T09:04:58.865Z,99975.81
2019-05-22T09:07:29.991Z,99974.30
2019-05-22T09:10:00.813Z,99982.34
2019-05-22T09:12:31.891Z,99977.67
2019-05-22T09:15:02.441Z,99982.56
2019-05-22T09:17:32.984Z,99987.45
2019-05-22T09:20:05.166Z,99989.30
2019-05-22T09:22:40.672Z,99996.34
2019-05-22T09:25:13.184Z,99995.52
2019-05-22T09:27:44.117Z,99995.02
2019-05-22T09:30:15.139Z,99999.20
2019-05-22T09:32:47.594Z,100000.56
2019-05-22T09:35:19.262Z,100004.41
2019-05-22T09:37:50.280Z,100000.55
2019-05-22T09:40:21.214Z,100000.08
2019-05-22T09:42:52.324Z,100001.41
2019-05-22T09:45:23.195Z,100000.06
2019-05-22T09:47:53.722Z,100001.75
2019-05-22T09:50:26.553Z,100006.42
2019-05-22T09:52:58.372Z,100007.44
2019-05-22T09:55:29.652Z,100015.47
2019-05-22T09:58:00.461Z,100021.16
2019-05-22T10:00:31.949Z,100021.16
2019-05-22T10:03:04.110Z,100015.10
2019-05-22T10:05:34.835Z,100022.66
2019-05-22T10:08:05.645Z,100025.48
2019-05-22T10:10:36.343Z,100020.60
2019-05-22T10:13:07.596Z,100027.30
2019-05-22T10:15:38.299Z,100023.61
2019-05-22T10:18:09.831Z,100024.30
2019-05-22T10:20:41.402Z,100038.05
2019-05-22T10:23:15.933Z,100029.16
2019-05-22T10:25:44.825Z,100033.84
2019-05-22T10:28:16.472Z,100042.22
2019-05-22T10:30:47.370Z,100036.05
2019-05-22T10:33:18.370Z,100049.49
2019-05-22T10:35:49.983Z,100049.14
2019-05-22T10:38:20.690Z,100050.14
2019-05-22T10:40:51.638Z,100051.98
2019-05-22T10:43:22.200Z,100051.30
2019-05-22T10:45:52.635Z,100055.50
2019-05-22T10:48:23.646Z,100061.02
2019-05-22T10:50:54.569Z,100064.74
2019-05-22T10:53:33.763Z,100069.77
2019-05-22T10:55:59.729Z,100063.53
2019-05-22T10:58:32.213Z,100062.66
2019-05-22T11:01:03.420Z,100062.05
2019-05-22T11:03:34.183Z,100071.59
2019-05-22T11:06:07.581Z,100075.13
2019-05-22T11:08:37.538Z,100065.56
2019-05-22T11:11:09.135Z,100079.81
2019-05-22T11:13:40.564Z,100085.02
2019-05-22T11:16:11.807Z,100092.20
2019-05-22T11:18:42.672Z,100079.16
2019-05-22T11:21:13.736Z,100074.45
2019-05-22T11:23:52.014Z,100071.11
2019-05-22T11:26:16.587Z,100081.16
2019-05-22T11:28:48.577Z,100074.77
2019-05-22T11:31:19.691Z,100071.77
2019-05-22T11:33:51.028Z,100075.27
2019-05-22T11:36:22.071Z,100079.66
2019-05-22T11:38:53.193Z,100085.50
2019-05-22T11:41:23.927Z,100083.36
2019-05-22T11:43:54.943Z,100076.95
2019-05-22T11:46:25.482Z,100089.23
2019-05-22T11:48:56.538Z,100086.03
2019-05-22T11:51:26.990Z,100085.23
2019-05-22T11:54:08.767Z,100090.42
2019-05-22T11:56:30.371Z,100086.56
2019-05-22T11:59:00.816Z,100086.53
2019-05-22T12:01:32.062Z,100084.53
2019-05-22T12:04:04.047Z,100085.00
2019-05-22T12:06:35.674Z,100083.83
2019-05-22T12:09:09.868Z,100080.47
2019-05-22T12:11:43.166Z,100084.33
2019-05-22T12:14:14.004Z,100085.16
2019-05-22T12:16:45.966Z,100083.79
2019-05-22T12:19:17.157Z,100078.56
2019-05-22T12:21:47.775Z,100079.38
2019-05-22T12:24:26.946Z,100088.91
2019-05-22T12:26:51.388Z,100088.14
2019-05-22T12:29:22.986Z,100084.02
2019-05-22T12:31:54.572Z,100087.91
2019-05-22T12:34:25.760Z,100079.88
2019-05-22T12:36:58.031Z,100083.92
2019-05-22T12:39:29.102Z,100084.07
2019-05-22T12:42:01.464Z,100087.44
2019-05-22T12:44:32.668Z,100089.94
2019-05-22T12:47:05.242Z,100084.86
2019-05-22T12:49:36.174Z,100091.58
2019-05-22T12:52:08.925Z,100085.27
2019-05-22T12:54:47.147Z,100093.67
2019-05-22T12:57:12.757Z,100088.93
2019-05-22T12:59:45.605Z,100093.00
2019-05-22T13:02:18.284Z,100095.28
2019-05-22T13:04:49.396Z,100097.27
2019-05-22T13:07:20.272Z,100097.34
2019-05-22T13:09:51.311Z,100094.98
2019-05-22T13:12:22.640Z,100097.52
2019-05-22T13:15:08.404Z,100090.80
2019-05-22T13:17:27.855Z,100096.61
2019-05-22T13:19:58.486Z,100091.48
2019-05-22T13:22:30.114Z,100097.61
2019-05-22T13:25:04.265Z,100088.09
2019-05-22T13:27:35.951Z,100092.26
2019-05-22T13:30:08.206Z,100089.55
2019-05-22T13:32:40.789Z,100086.72
2019-05-22T13:35:14.286Z,100094.64
2019-05-22T13:37:44.967Z,100090.53
2019-05-22T13:40:26.979Z,100087.27
2019-05-22T13:42:48.803Z,100093.02
2019-05-22T13:45:29.466Z,100092.24
2019-05-22T13:47:53.549Z,100090.63
2019-05-22T13:50:28.299Z,100091.70
2019-05-22T13:52:58.473Z,100092.80
2019-05-22T13:55:29.592Z,100092.26
2019-05-22T13:58:02.452Z,100086.51
2019-05-22T14:00:35.709Z,100094.87
2019-05-22T14:03:06.834Z,100093.16
2019-05-22T14:05:38.057Z,100090.30
2019-05-22T14:08:09.698Z,100100.73
2019-05-22T14:10:41.077Z,100093.27
2019-05-22T14:13:12.799Z,100101.87
2019-05-22T14:15:54.705Z,100109.19
2019-05-22T14:18:16.175Z,100105.63
2019-05-22T14:20:47.001Z,100109.16
2019-05-22T14:23:18.445Z,100107.99
2019-05-22T14:25:49.680Z,100109.58
2019-05-22T14:28:21.979Z,100108.61
2019-05-22T14:30:52.673Z,100112.47
2019-05-22T14:33:27.854Z,100108.44
2019-05-22T14:35:57.883Z,100107.61
2019-05-22T14:38:28.953Z,100106.49
2019-05-22T14:40:59.903Z,100107.89
2019-05-22T14:43:30.507Z,100105.77
2019-05-22T14:46:01.054Z,100109.36
2019-05-22T14:48:32.012Z,100108.61
2019-05-22T14:51:02.711Z,100113.98
2019-05-22T14:53:33.648Z,100110.44
2019-05-22T14:56:10.367Z,100114.36
2019-05-22T14:58:39.545Z,100115.31
2019-05-22T15:01:11.163Z,100109.48
2019-05-22T15:03:42.505Z,100104.08
2019-05-22T15:06:14.166Z,100102.28
2019-05-22T15:08:45.905Z,100113.89
2019-05-22T15:11:17.881Z,100110.90
2019-05-22T15:13:48.464Z,100113.73
2019-05-22T15:16:19.460Z,100118.41
2019-05-22T15:18:51.589Z,100116.92
2019-05-22T15:21:22.097Z,100114.66
2019-05-22T15:23:53.646Z,100115.05
2019-05-22T15:26:24.295Z,100116.39
2019-05-22T15:28:54.789Z,100117.05
2019-05-22T15:31:25.749Z,100110.80
2019-05-22T15:33:58.569Z,100108.04
2019-05-22T15:36:30.185Z,100107.55
2019-05-22T15:39:02.163Z,100102.78
2019-05-22T15:41:33.861Z,100101.75
2019-05-22T15:44:06.133Z,100100.14
2019-05-22T15:46:37.318Z,100112.20
2019-05-22T15:49:10.317Z,100108.63
2019-05-22T15:51:42.780Z,100099.67
2019-05-22T15:54:14.592Z,100106.82
2019-05-22T15:56:46.790Z,100100.59
2019-05-22T15:59:20.703Z,100097.25
2019-05-22T16:01:52.707Z,100105.80
2019-05-22T16:04:24.880Z,100097.77
2019-05-22T16:06:57.440Z,100103.95
2019-05-22T16:09:29.355Z,100096.82
2019-05-22T16:12:00.893Z,100102.34
2019-05-22T16:14:33.129Z,100098.43
2019-05-22T16:17:05.978Z,100101.49
2019-05-22T16:19:36.824Z,100096.03
2019-05-22T16:22:10.218Z,100093.46
2019-05-22T16:24:41.550Z,100090.01
2019-05-22T16:27:14.505Z,100090.83
2019-05-22T16:29:46.505Z,100095.27
2019-05-22T16:32:19.440Z,100096.48
2019-05-22T16:34:50.140Z,100093.53
2019-05-22T16:37:22.292Z,100091.02
2019-05-22T16:39:53.363Z,100093.72
2019-05-22T16:42:23.898Z,100089.84
2019-05-22T16:44:54.926Z,100084.45
2019-05-22T16:47:25.817Z,100094.41
2019-05-22T16:49:57.003Z,100091.91
2019-05-22T16:52:29.353Z,100090.85
2019-05-22T16:55:01.675Z,100085.78
2019-05-22T16:57:34.517Z,100084.24
2019-05-22T17:00:07.201Z,100088.26
2019-05-22T17:02:38.813Z,100082.47
2019-05-22T17:05:11.413Z,100087.94
2019-05-22T17:07:44.030Z,100091.02
2019-05-22T17:10:16.409Z,100091.78
2019-05-22T17:12:47.267Z,100083.82
2019-05-22T17:15:20.634Z,100085.92
2019-05-22T17:17:51.483Z,100084.83
2019-05-22T17:20:24.789Z,100087.06
2019-05-22T17:22:55.813Z,100090.34
2019-05-22T17:25:28.209Z,100084.42
2019-05-22T17:27:59.682Z,100086.79
2019-05-22T17:30:33.224Z,100092.84
2019-05-22T17:33:04.572Z,100089.62
2019-05-22T17:35:35.970Z,100091.39
2019-05-22T17:38:08.671Z,100089.05
2019-05-22T17:40:41.453Z,100088.91
2019-05-22T17:43:14.735Z,100087.76
2019-05-22T17:45:46.894Z,100083.69
2019-05-22T17:48:19.085Z,100079.45
2019-05-22T17:50:50.290Z,100084.95
2019-05-22T17:53:24.116Z,100080.91
2019-05-22T17:55:56.500Z,100079.81
2019-05-22T17:58:30.144Z,100091.38
2019-05-22T18:01:01.148Z,100092.78
2019-05-22T18:03:31.992Z,100090.72
2019-05-22T18:06:03.716Z,100091.63
2019-05-22T18:08:34.739Z,100098.27
2019-05-22T18:11:07.585Z,100090.73
2019-05-22T18:13:54.509Z,100096.45
2019-05-22T18:16:26.649Z,100093.66
2019-05-22T18:18:57.697Z,100089.83
2019-05-22T18:21:29.033Z,100091.64
2019-05-22T18:24:00.244Z,100097.89
2019-05-22T18:26:33.265Z,100092.41
2019-05-22T18:29:04.395Z,100094.77
2019-05-22T18:31:35.742Z,100088.80
2019-05-22T18:34:06.637Z,100096.88
2019-05-22T18:36:40.882Z,100093.11
2019-05-22T18:39:12.971Z,100094.30
2019-05-22T18:41:47.412Z,100092.29
2019-05-22T18:44:18.101Z,100100.25
2019-05-22T18:46:49.321Z,100105.52
2019-05-22T18:49:21.261Z,100106.68
2019-05-22T18:51:52.649Z,100107.91
2019-05-22T18:54:24.335Z,100106.97
2019-05-22T18:56:55.536Z,100113.27
2019-05-22T18:59:26.456Z,100111.13
2019-05-22T19:01:57.386Z,100111.55
2019-05-22T19:04:30.571Z,100115.06
2019-05-22T19:07:01.565Z,100118.91
2019-05-22T19:09:34.378Z,100126.09
2019-05-22T19:12:05.250Z,100121.14
2019-05-22T19:14:36.289Z,100129.05
2019-05-22T19:17:07.228Z,100131.42
2019-05-22T19:19:38.843Z,100127.68
2019-05-22T19:22:11.474Z,100130.58
2019-05-22T19:24:44.637Z,100133.45
2019-05-22T19:27:15.321Z,100128.39
2019-05-22T19:29:46.171Z,100131.25
2019-05-22T19:32:16.909Z,100131.08
2019-05-22T19:34:49.688Z,100131.75
2019-05-22T19:37:20.663Z,100129.92
2019-05-22T19:39:51.845Z,100129.41
2019-05-22T19:42:24.141Z,100133.80
2019-05-22T19:44:54.692Z,100134.14
2019-05-22T19:47:26.681Z,100132.48
2019-05-22T19:49:57.633Z,100143.73
2019-05-22T19:52:41.851Z,100149.13
2019-05-22T19:55:12.889Z,100145.59
2019-05-22T19:57:44.601Z,100147.26
2019-05-22T20:00:15.730Z,100150.29
2019-05-22T20:02:46.367Z,100147.75
2019-05-22T20:05:17.207Z,100147.92
2019-05-22T20:07:48.126Z,100145.89
2019-05-22T20:10:19.194Z,100149.60
2019-05-22T20:12:49.919Z,100150.60
2019-05-22T20:15:42.438Z,100149.26
2019-05-22T20:18:15.567Z,100151.77
2019-05-22T20:20:51.820Z,100161.97
2019-05-22T20:23:35.506Z,100159.10
2019-05-22T20:25:55.953Z,100162.08
2019-05-22T20:28:28.120Z,100160.38
2019-05-22T20:30:59.025Z,100159.39
2019-05-22T20:33:32.357Z,100163.94
2019-05-22T20:36:03.226Z,100160.43
2019-05-22T20:38:36.937Z,100166.78
2019-05-22T20:41:07.861Z,100168.30
2019-05-22T20:43:40.367Z,100171.45
2019-05-22T20:46:11.291Z,100169.98
2019-05-22T20:48:42.257Z,100167.00
2019-05-22T20:51:15.630Z,100171.12
2019-05-22T20:53:54.160Z,100160.11
2019-05-22T20:56:21.621Z,100165.47
2019-05-22T20:58:53.439Z,100169.67
2019-05-22T21:01:24.822Z,100167.16
2019-05-22T21:03:56.153Z,100164.97
2019-05-22T21:06:28.785Z,100174.16
2019-05-22T21:09:00.235Z,100170.16
2019-05-22T21:11:32.403Z,100169.50
2019-05-22T21:14:04.566Z,100178.51
2019-05-22T21:16:36.251Z,100177.83
2019-05-22T21:19:07.510Z,100186.16
2019-05-22T21:21:38.372Z,100185.95
2019-05-22T21:24:12.242Z,100183.63
2019-05-22T21:26:42.706Z,100187.32
2019-05-22T21:29:13.497Z,100180.44
2019-05-22T21:31:47.497Z,100186.27
2019-05-22T21:34:16.973Z,100180.30
2019-05-22T21:36:47.672Z,100175.47
2019-05-22T21:39:18.993Z,100180.82
2019-05-22T21:41:50.445Z,100180.44
2019-05-22T21:44:21.360Z,100182.42
2019-05-22T21:46:51.864Z,100181.91
2019-05-22T21:49:24.764Z,100179.14
2019-05-22T21:51:56.457Z,100183.94
2019-05-22T21:54:26.982Z,100186.11
2019-05-22T21:56:58.218Z,100189.94
2019-05-22T21:59:29.045Z,100193.94
2019-05-22T22:02:09.618Z,100189.06
2019-05-22T22:04:40.248Z,100195.02
2019-05-22T22:07:11.144Z,100194.62
2019-05-22T22:09:43.388Z,100197.62
2019-05-22T22:12:17.312Z,100194.09
2019-05-22T22:14:49.922Z,100193.52
2019-05-22T22:17:21.109Z,100198.87
2019-05-22T22:19:52.913Z,100198.36
2019-05-22T22:22:29.877Z,100206.25
2019-05-22T22:25:00.938Z,100206.16
2019-05-22T22:27:31.865Z,100206.56
2019-05-22T22:30:04.823Z,100209.20
2019-05-22T22:32:37.163Z,100214.88
2019-05-22T22:35:10.698Z,100216.25
2019-05-22T22:37:41.621Z,100205.79
2019-05-22T22:40:15.988Z,100212.61
2019-05-22T22:42:49.160Z,100217.55
2019-05-22T22:45:27.654Z,100215.01
2019-05-22T22:47:59.352Z,100221.09
2019-05-22T22:50:29.777Z,100219.82
2019-05-22T22:53:02.853Z,100220.46
2019-05-22T22:55:34.582Z,100220.78
2019-05-22T22:58:16.651Z,100226.09
2019-05-22T23:00:40.976Z,100227.91
2019-05-22T23:03:13.720Z,100223.36
2019-05-22T23:05:47.468Z,100221.25
2019-05-22T23:08:23.404Z,100224.80
2019-05-22T23:10:55.010Z,100232.57
2019-05-22T23:13:26.518Z,100221.05
2019-05-22T23:15:57.983Z,100228.41
2019-05-22T23:19:06.926Z,100225.66
2019-05-22T23:21:36.281Z,100231.17
2019-05-22T23:24:05.244Z,100230.62
2019-05-22T23:26:36.996Z,100236.32
2019-05-22T23:29:09.013Z,100236.28
2019-05-22T23:31:40.672Z,100241.33
2019-05-22T23:34:11.657Z,100238.97
2019-05-22T23:36:43.043Z,100236.77
2019-05-22T23:39:15.636Z,100235.28
2019-05-22T23:41:46.751Z,100232.77
2019-05-22T23:44:21.629Z,100236.97
2019-05-22T23:46:52.664Z,100235.59
2019-05-22T23:49:23.129Z,100237.41
2019-05-22T23:51:54.228Z,100239.98
2019-05-22T23:54:25.970Z,100234.33
2019-05-22T23:56:57.344Z,100238.27
2019-05-22T23:59:30.386Z,100234.80
